Time;durP1;ratioP1;P1;durP2;ratioP2;P2;SDS_P1;SDS_P2;PMS_P1;PMS_P2;Temp;Humidity;BMP_temperature;BMP_pressure;BME280_temperature;BME280_humidity;BME280_pressure;Samples;Min_cycle;Max_cycle;Signal;HPM_P1;HPM_P2
2023/11/17 00:02:22;;;;;;;22.08;20.35;;;;;;;;;;5132721;28;20198;-77
2023/11/17 00:04:49;;;;;;;22.20;20.70;;;;;;;;;;5132457;28;20201;-77
2023/11/17 00:07:16;;;;;;;22.38;20.90;;;;;;;;;;5133225;28;20724;-77
2023/11/17 00:09:43;;;;;;;23.00;21.40;;;;;;;;;;5132993;28;20202;-78
2023/11/17 00:12:11;;;;;;;21.98;20.58;;;;;;;;;;5133200;28;20197;-77
2023/11/17 00:14:38;;;;;;;27.08;22.30;;;;;;;;;;5131892;28;20223;-78
2023/11/17 00:17:05;;;;;;;24.25;22.55;;;;;;;;;;5132920;28;20193;-78
2023/11/17 00:19:33;;;;;;;23.08;21.48;;;;;;;;;;5132798;27;20228;-78
2023/11/17 00:22:01;;;;;;;23.75;22.15;;;;;;;;;;5132981;28;20232;-78
2023/11/17 00:24:28;;;;;;;23.10;21.60;;;;;;;;;;5133011;28;20215;-78
2023/11/17 00:26:55;;;;;;;23.48;21.92;;;;;;;;;;5133064;28;20233;-78
2023/11/17 00:29:22;;;;;;;22.65;21.15;;;;;;;;;;5133054;28;20209;-78
2023/11/17 00:31:49;;;;;;;22.75;21.33;;;;;;;;;;5132681;28;20338;-77
2023/11/17 00:34:16;;;;;;;23.15;21.65;;;;;;;;;;5131933;28;20314;-78
2023/11/17 00:36:45;;;;;;;23.38;21.88;;;;;;;;;;5132803;28;20209;-77
2023/11/17 00:39:14;;;;;;;22.25;20.95;;;;;;;;;;5134219;27;20884;-78
2023/11/17 00:41:42;;;;;;;22.70;21.30;;;;;;;;;;5137203;27;20220;-77
2023/11/17 00:44:09;;;;;;;23.13;21.52;;;;;;;;;;5136456;27;20296;-76
2023/11/17 00:46:37;;;;;;;22.77;21.27;;;;;;;;;;5136745;27;20213;-77
2023/11/17 00:49:04;;;;;;;23.40;21.65;;;;;;;;;;5136451;27;20290;-77
2023/11/17 00:51:33;;;;;;;23.17;21.67;;;;;;;;;;5136495;27;20714;-78
2023/11/17 00:54:04;;;;;;;23.27;21.63;;;;;;;;;;5136320;27;20213;-78
2023/11/17 00:56:31;;;;;;;23.45;22.05;;;;;;;;;;5136690;27;20671;-77
2023/11/17 00:58:58;;;;;;;24.15;22.55;;;;;;;;;;5136638;27;20257;-78
2023/11/17 01:01:26;;;;;;;23.48;21.95;;;;;;;;;;5136778;27;20218;-79
2023/11/17 01:03:53;;;;;;;22.30;21.00;;;;;;;;;;5135574;27;20201;-77
2023/11/17 01:06:21;;;;;;;24.00;22.40;;;;;;;;;;5136413;27;20247;-77
2023/11/17 01:08:48;;;;;;;22.42;21.02;;;;;;;;;;5138924;27;20591;-78
2023/11/17 01:11:17;;;;;;;23.77;22.17;;;;;;;;;;5132830;27;20268;-81
2023/11/17 01:13:44;;;;;;;24.00;22.40;;;;;;;;;;5118906;28;20228;-78
2023/11/17 01:16:14;;;;;;;22.48;21.00;;;;;;;;;;5121283;28;20206;-80
2023/11/17 01:18:43;;;;;;;22.90;21.40;;;;;;;;;;5118437;28;20313;-77
2023/11/17 01:21:10;;;;;;;23.02;21.60;;;;;;;;;;5118030;28;20202;-77
2023/11/17 01:23:38;;;;;;;23.58;22.00;;;;;;;;;;5130329;27;20209;-80
2023/11/17 01:26:05;;;;;;;23.00;21.48;;;;;;;;;;5136649;27;20208;-78
2023/11/17 01:28:34;;;;;;;24.45;22.95;;;;;;;;;;5136046;27;20224;-78
2023/11/17 01:31:01;;;;;;;23.80;22.10;;;;;;;;;;5135994;27;20213;-77
2023/11/17 01:33:28;;;;;;;24.83;23.05;;;;;;;;;;5135706;27;20201;-78
2023/11/17 01:35:55;;;;;;;23.80;22.30;;;;;;;;;;5134921;27;20242;-77
2023/11/17 01:38:22;;;;;;;22.33;20.95;;;;;;;;;;5135392;27;20746;-77
2023/11/17 01:40:49;;;;;;;23.08;21.67;;;;;;;;;;5136014;27;20206;-78
2023/11/17 01:43:16;;;;;;;23.98;22.35;;;;;;;;;;5147098;27;20209;-77
2023/11/17 01:45:45;;;;;;;23.70;22.10;;;;;;;;;;5148993;27;20197;-77
2023/11/17 01:48:12;;;;;;;22.95;21.23;;;;;;;;;;5142221;27;20232;-76
2023/11/17 01:50:39;;;;;;;22.40;21.10;;;;;;;;;;5134941;27;20692;-78
2023/11/17 01:53:07;;;;;;;24.00;22.27;;;;;;;;;;5135633;27;20197;-78
2023/11/17 01:55:34;;;;;;;23.63;22.10;;;;;;;;;;5135005;27;20229;-78
2023/11/17 01:58:02;;;;;;;23.83;22.23;;;;;;;;;;5135591;27;20236;-78
2023/11/17 02:00:29;;;;;;;22.67;21.17;;;;;;;;;;5135334;27;20604;-79
2023/11/17 02:03:00;;;;;;;24.75;22.95;;;;;;;;;;5135633;27;20567;-78
2023/11/17 02:05:27;;;;;;;23.35;21.85;;;;;;;;;;5134798;27;20194;-79
2023/11/17 02:08:00;;;;;;;23.80;22.23;;;;;;;;;;5136530;27;20236;-77
2023/11/17 02:10:32;;;;;;;25.55;23.65;;;;;;;;;;5140460;27;20184;-78
2023/11/17 02:13:02;;;;;;;24.50;22.90;;;;;;;;;;5135620;27;20228;-77
2023/11/17 02:15:35;;;;;;;25.10;23.20;;;;;;;;;;5134672;27;20221;-78
2023/11/17 02:18:10;;;;;;;23.80;22.33;;;;;;;;;;5134960;27;20217;-78
2023/11/17 02:20:38;;;;;;;22.17;20.85;;;;;;;;;;5135778;27;20189;-77
2023/11/17 02:23:10;;;;;;;23.40;21.90;;;;;;;;;;5134950;27;20205;-78
2023/11/17 02:25:44;;;;;;;24.35;22.85;;;;;;;;;;5134532;27;20227;-77
2023/11/17 02:28:20;;;;;;;24.48;22.80;;;;;;;;;;5135245;27;20296;-78
2023/11/17 02:30:55;;;;;;;23.98;22.38;;;;;;;;;;5135480;27;20193;-78
2023/11/17 02:33:24;;;;;;;24.00;22.50;;;;;;;;;;5136150;27;20191;-78
2023/11/17 02:35:52;;;;;;;23.70;22.10;;;;;;;;;;5149205;27;20484;-77
2023/11/17 02:38:20;;;;;;;24.38;22.73;;;;;;;;;;5148822;27;20290;-77
2023/11/17 02:40:47;;;;;;;24.13;22.35;;;;;;;;;;5149850;27;20209;-77
2023/11/17 02:43:15;;;;;;;23.98;22.38;;;;;;;;;;5150049;27;20224;-76
2023/11/17 02:45:42;;;;;;;22.38;21.08;;;;;;;;;;5142051;27;20235;-78
2023/11/17 02:48:10;;;;;;;23.50;22.00;;;;;;;;;;5130724;27;20301;-78
2023/11/17 02:50:51;;;;;;;24.52;22.95;;;;;;;;;;5114534;28;20186;-78
2023/11/17 02:53:24;;;;;;;24.50;22.63;;;;;;;;;;5114622;28;20210;-77
2023/11/17 02:55:51;;;;;;;23.35;21.50;;;;;;;;;;5114446;28;20214;-78
2023/11/17 02:58:19;;;;;;;24.83;23.23;;;;;;;;;;5120522;27;20236;-76
2023/11/17 03:00:51;;;;;;;25.58;23.85;;;;;;;;;;5133953;27;20236;-77
2023/11/17 03:03:22;;;;;;;24.95;23.35;;;;;;;;;;5136848;27;20205;-77
2023/11/17 03:05:49;;;;;;;25.10;23.42;;;;;;;;;;5134291;27;20540;-78
2023/11/17 03:08:19;;;;;;;25.15;23.45;;;;;;;;;;5134230;27;20699;-77
2023/11/17 03:10:47;;;;;;;25.63;23.83;;;;;;;;;;5130198;27;20214;-77
2023/11/17 03:13:16;;;;;;;26.10;24.38;;;;;;;;;;5113630;28;20202;-77
2023/11/17 03:15:43;;;;;;;25.40;23.80;;;;;;;;;;5112803;28;20222;-78
2023/11/17 03:18:11;;;;;;;27.77;25.63;;;;;;;;;;5113865;28;20249;-78
2023/11/17 03:20:39;;;;;;;25.98;24.25;;;;;;;;;;5113586;28;20206;-78
2023/11/17 03:23:06;;;;;;;25.83;23.90;;;;;;;;;;5113160;28;20217;-78
2023/11/17 03:25:39;;;;;;;26.42;24.42;;;;;;;;;;5111521;28;20206;-78
2023/11/17 03:28:10;;;;;;;25.23;23.52;;;;;;;;;;5112433;28;20257;-77
2023/11/17 03:30:38;;;;;;;25.45;23.85;;;;;;;;;;5112392;28;20194;-77
2023/11/17 03:33:06;;;;;;;25.85;23.50;;;;;;;;;;5112558;28;20202;-77
2023/11/17 03:35:33;;;;;;;25.20;23.40;;;;;;;;;;5111750;28;20217;-77
2023/11/17 03:38:01;;;;;;;26.48;24.67;;;;;;;;;;5121824;28;20229;-76
2023/11/17 03:40:28;;;;;;;25.10;23.50;;;;;;;;;;5114975;28;20285;-78
2023/11/17 03:42:55;;;;;;;25.30;23.50;;;;;;;;;;5112277;28;20217;-79
2023/11/17 03:45:24;;;;;;;24.50;22.90;;;;;;;;;;5113194;28;20267;-79
2023/11/17 03:47:52;;;;;;;24.80;23.30;;;;;;;;;;5113543;28;20218;-77
2023/11/17 03:50:20;;;;;;;24.67;23.00;;;;;;;;;;5113267;28;20206;-79
2023/11/17 03:52:47;;;;;;;25.33;23.63;;;;;;;;;;5114254;28;20197;-78
2023/11/17 03:55:17;;;;;;;24.65;22.90;;;;;;;;;;5113457;28;20222;-79
2023/11/17 03:57:45;;;;;;;24.23;22.63;;;;;;;;;;5113723;28;20249;-77
2023/11/17 04:00:15;;;;;;;23.58;22.10;;;;;;;;;;5113610;28;20206;-78
2023/11/17 04:02:42;;;;;;;25.50;23.77;;;;;;;;;;5114401;28;20554;-78
2023/11/17 04:05:13;;;;;;;24.98;23.38;;;;;;;;;;5112754;28;20217;-78
2023/11/17 04:07:40;;;;;;;24.42;22.85;;;;;;;;;;5114063;28;20634;-78
2023/11/17 04:10:08;;;;;;;37.95;34.38;;;;;;;;;;5114088;28;20202;-77
2023/11/17 04:12:37;;;;;;;40.13;36.45;;;;;;;;;;5114319;28;20205;-78
2023/11/17 04:15:04;;;;;;;34.67;31.58;;;;;;;;;;5116980;28;20226;-78
2023/11/17 04:17:33;;;;;;;32.08;29.42;;;;;;;;;;5117559;28;20222;-77
2023/11/17 04:20:00;;;;;;;36.17;32.60;;;;;;;;;;5121505;27;20209;-78
2023/11/17 04:22:27;;;;;;;37.55;33.72;;;;;;;;;;5118305;28;20201;-78
2023/11/17 04:24:54;;;;;;;33.45;29.90;;;;;;;;;;5117503;28;20740;-77
2023/11/17 04:27:21;;;;;;;30.08;27.38;;;;;;;;;;5117891;28;20226;-77
2023/11/17 04:29:50;;;;;;;31.67;28.85;;;;;;;;;;5117914;28;20210;-79
2023/11/17 04:32:17;;;;;;;32.35;29.35;;;;;;;;;;5116867;28;20213;-78
2023/11/17 04:34:44;;;;;;;29.60;26.98;;;;;;;;;;5117504;28;20202;-78
2023/11/17 04:37:12;;;;;;;30.95;28.15;;;;;;;;;;5117475;28;20736;-79
2023/11/17 04:39:39;;;;;;;30.40;27.58;;;;;;;;;;5117633;28;20210;-78
2023/11/17 04:42:07;;;;;;;31.67;28.63;;;;;;;;;;5116957;28;20267;-77
2023/11/17 04:44:34;;;;;;;72.57;49.67;;;;;;;;;;5116074;28;20210;-77
2023/11/17 04:47:02;;;;;;;47.47;36.60;;;;;;;;;;5116628;28;20238;-78
2023/11/17 04:49:30;;;;;;;38.03;29.58;;;;;;;;;;5116661;28;20206;-78
2023/11/17 04:51:57;;;;;;;62.80;46.55;;;;;;;;;;5117103;28;20213;-79
2023/11/17 04:54:25;;;;;;;46.72;29.58;;;;;;;;;;5116490;28;20622;-78
2023/11/17 04:56:52;;;;;;;348.65;170.65;;;;;;;;;;5116967;28;20320;-78
2023/11/17 04:59:19;;;;;;;167.50;97.95;;;;;;;;;;5117067;28;20186;-78
2023/11/17 05:01:46;;;;;;;102.07;64.22;;;;;;;;;;5117130;28;20202;-79
2023/11/17 05:04:14;;;;;;;105.45;46.30;;;;;;;;;;5117106;28;20209;-78
2023/11/17 05:06:42;;;;;;;82.28;30.05;;;;;;;;;;5117518;28;20209;-77
2023/11/17 05:09:10;;;;;;;71.57;31.77;;;;;;;;;;5121484;28;20218;-78
2023/11/17 05:11:38;;;;;;;95.82;33.58;;;;;;;;;;5127312;27;20190;-78
2023/11/17 05:14:06;;;;;;;135.52;35.58;;;;;;;;;;5137528;27;20950;-78
2023/11/17 05:16:35;;;;;;;93.95;31.83;;;;;;;;;;5138581;27;20248;-78
2023/11/17 05:19:03;;;;;;;98.65;32.85;;;;;;;;;;5138029;27;20225;-79
2023/11/17 05:21:32;;;;;;;99.25;32.65;;;;;;;;;;5138110;27;20229;-79
2023/11/17 05:23:59;;;;;;;97.60;32.22;;;;;;;;;;5137458;27;20201;-78
2023/11/17 05:26:26;;;;;;;78.25;33.58;;;;;;;;;;5138329;27;20213;-79
2023/11/17 05:28:53;;;;;;;86.50;32.75;;;;;;;;;;5137399;27;20779;-78
2023/11/17 05:31:21;;;;;;;96.53;33.55;;;;;;;;;;5137827;27;20554;-78
2023/11/17 05:33:48;;;;;;;89.25;33.97;;;;;;;;;;5154027;27;20212;-79
2023/11/17 05:36:16;;;;;;;173.30;39.08;;;;;;;;;;5143184;27;20364;-79
2023/11/17 05:38:47;;;;;;;124.68;33.55;;;;;;;;;;5140604;27;20217;-76
2023/11/17 05:41:14;;;;;;;60.90;32.80;;;;;;;;;;5136724;27;20250;-78
2023/11/17 05:43:45;;;;;;;69.40;33.40;;;;;;;;;;5137581;27;20209;-77
2023/11/17 05:46:12;;;;;;;67.35;33.78;;;;;;;;;;5137950;27;20261;-79
2023/11/17 05:48:40;;;;;;;58.33;32.70;;;;;;;;;;5136698;27;20232;-77
2023/11/17 05:51:09;;;;;;;60.97;30.55;;;;;;;;;;5136680;27;20237;-78
2023/11/17 05:53:37;;;;;;;68.78;33.95;;;;;;;;;;5136850;27;20970;-78
2023/11/17 05:56:07;;;;;;;64.40;32.85;;;;;;;;;;5135703;27;20225;-77
2023/11/17 05:58:35;;;;;;;83.53;34.75;;;;;;;;;;5136442;27;20236;-78
2023/11/17 06:01:02;;;;;;;63.47;34.22;;;;;;;;;;5136923;27;20213;-79
2023/11/17 06:03:29;;;;;;;68.10;32.70;;;;;;;;;;5141175;27;20475;-77
2023/11/17 06:05:56;;;;;;;55.58;31.95;;;;;;;;;;5137201;27;20201;-78
2023/11/17 06:08:23;;;;;;;90.35;35.08;;;;;;;;;;5137178;27;20226;-78
2023/11/17 06:10:50;;;;;;;78.93;33.58;;;;;;;;;;5137131;27;20213;-78
2023/11/17 06:13:19;;;;;;;65.68;33.90;;;;;;;;;;5139332;27;20280;-79
2023/11/17 06:15:46;;;;;;;54.28;33.00;;;;;;;;;;5138826;27;20249;-78
2023/11/17 06:18:14;;;;;;;51.33;32.95;;;;;;;;;;5137445;27;20229;-78
2023/11/17 06:20:41;;;;;;;37.38;32.53;;;;;;;;;;5136659;27;20214;-78
2023/11/17 06:23:09;;;;;;;73.35;32.80;;;;;;;;;;5137427;27;20204;-77
2023/11/17 06:25:36;;;;;;;34.40;30.85;;;;;;;;;;5136519;27;20202;-78
2023/11/17 06:28:03;;;;;;;52.30;32.45;;;;;;;;;;5137363;27;20248;-77
2023/11/17 06:30:32;;;;;;;36.05;32.53;;;;;;;;;;5137199;27;20210;-78
2023/11/17 06:32:59;;;;;;;44.42;33.55;;;;;;;;;;5136954;27;20201;-78
2023/11/17 06:35:26;;;;;;;44.83;32.47;;;;;;;;;;5136130;27;20224;-78
2023/11/17 06:37:53;;;;;;;52.92;30.85;;;;;;;;;;5140501;27;20222;-78
2023/11/17 06:40:22;;;;;;;45.35;31.23;;;;;;;;;;5143412;27;20209;-78
2023/11/17 06:42:49;;;;;;;35.28;31.55;;;;;;;;;;5140974;27;20241;-78
2023/11/17 06:45:16;;;;;;;50.92;32.05;;;;;;;;;;5131257;27;20203;-78
2023/11/17 06:47:45;;;;;;;42.85;32.42;;;;;;;;;;5142999;27;20727;-79
2023/11/17 06:50:12;;;;;;;52.42;33.60;;;;;;;;;;5144314;27;20205;-80
2023/11/17 06:52:41;;;;;;;54.88;32.55;;;;;;;;;;5145328;27;20208;-78
2023/11/17 06:55:09;;;;;;;46.05;31.17;;;;;;;;;;5144262;27;20205;-79
2023/11/17 06:57:36;;;;;;;46.35;33.35;;;;;;;;;;5145058;27;20285;-79
2023/11/17 07:00:08;;;;;;;39.25;33.38;;;;;;;;;;5143468;27;20452;-77
2023/11/17 07:02:35;;;;;;;54.35;32.13;;;;;;;;;;5119366;27;20624;-79
2023/11/17 07:05:07;;;;;;;47.55;34.15;;;;;;;;;;5127902;27;20758;-78
2023/11/17 07:07:35;;;;;;;44.45;33.53;;;;;;;;;;5119307;27;20704;-78
2023/11/17 07:10:02;;;;;;;38.15;33.67;;;;;;;;;;5117791;27;20649;-78
2023/11/17 07:12:29;;;;;;;37.35;33.67;;;;;;;;;;5124175;27;20213;-78
2023/11/17 07:14:58;;;;;;;40.30;34.08;;;;;;;;;;5133369;27;20197;-78
2023/11/17 07:17:25;;;;;;;41.83;33.60;;;;;;;;;;5134063;27;20558;-78
2023/11/17 07:19:53;;;;;;;36.33;32.58;;;;;;;;;;5134306;27;20212;-79
2023/11/17 07:22:21;;;;;;;40.90;32.55;;;;;;;;;;5133840;27;20212;-78
2023/11/17 07:24:48;;;;;;;46.22;35.45;;;;;;;;;;5132431;27;20712;-77
2023/11/17 07:27:16;;;;;;;53.90;33.38;;;;;;;;;;5134129;27;20232;-79
2023/11/17 07:29:43;;;;;;;43.55;32.85;;;;;;;;;;5134213;27;20197;-79
2023/11/17 07:32:10;;;;;;;45.33;32.08;;;;;;;;;;5134112;27;20198;-78
2023/11/17 07:34:37;;;;;;;42.80;34.10;;;;;;;;;;5126987;27;20213;-78
2023/11/17 07:37:04;;;;;;;37.92;32.47;;;;;;;;;;5113549;28;20570;-79
2023/11/17 07:39:32;;;;;;;41.40;34.63;;;;;;;;;;5112372;28;20681;-79
2023/11/17 07:41:59;;;;;;;36.70;32.70;;;;;;;;;;5113021;28;20218;-80
2023/11/17 07:44:27;;;;;;;46.53;34.97;;;;;;;;;;5119438;28;20208;-79
2023/11/17 07:46:54;;;;;;;49.35;34.47;;;;;;;;;;5133717;27;20202;-77
2023/11/17 07:49:21;;;;;;;38.45;33.15;;;;;;;;;;5119157;27;20574;-78
2023/11/17 07:51:49;;;;;;;37.88;33.97;;;;;;;;;;5121655;27;20236;-77
2023/11/17 07:54:17;;;;;;;46.25;34.50;;;;;;;;;;5114103;28;20296;-78
2023/11/17 07:56:46;;;;;;;36.05;32.40;;;;;;;;;;5113948;28;20249;-78
2023/11/17 07:59:13;;;;;;;38.58;34.40;;;;;;;;;;5113876;28;20628;-76
2023/11/17 08:01:41;;;;;;;36.90;33.17;;;;;;;;;;5113455;28;20216;-78
2023/11/17 08:04:08;;;;;;;37.67;33.97;;;;;;;;;;5113028;28;20213;-78
2023/11/17 08:06:36;;;;;;;39.38;35.15;;;;;;;;;;5116245;28;20236;-78
2023/11/17 08:09:04;;;;;;;39.17;35.10;;;;;;;;;;5114043;28;20282;-77
2023/11/17 08:11:31;;;;;;;37.20;33.80;;;;;;;;;;5113996;28;20202;-78
2023/11/17 08:13:59;;;;;;;38.22;34.38;;;;;;;;;;5114430;28;20217;-77
2023/11/17 08:16:27;;;;;;;38.20;34.50;;;;;;;;;;5134267;28;20232;-79
2023/11/17 08:18:54;;;;;;;41.80;36.50;;;;;;;;;;5134317;28;20221;-78
2023/11/17 08:21:22;;;;;;;38.53;34.75;;;;;;;;;;5133689;28;20816;-77
2023/11/17 08:23:49;;;;;;;41.00;36.92;;;;;;;;;;5133718;28;20586;-77
2023/11/17 08:26:18;;;;;;;38.85;34.75;;;;;;;;;;5135395;28;20205;-78
2023/11/17 08:28:46;;;;;;;38.83;35.03;;;;;;;;;;5134183;28;20221;-79
2023/11/17 08:31:15;;;;;;;37.53;33.58;;;;;;;;;;5133815;28;20593;-78
2023/11/17 08:33:43;;;;;;;38.15;34.65;;;;;;;;;;5133829;28;20216;-78
2023/11/17 08:36:10;;;;;;;38.78;34.88;;;;;;;;;;5133512;28;20225;-77
2023/11/17 08:38:41;;;;;;;38.90;35.08;;;;;;;;;;5133875;28;20236;-77
2023/11/17 08:41:10;;;;;;;36.92;33.53;;;;;;;;;;5133281;27;20296;-77
2023/11/17 08:43:37;;;;;;;40.72;36.88;;;;;;;;;;5136171;28;20190;-87
2023/11/17 08:46:06;;;;;;;41.40;37.22;;;;;;;;;;5135300;28;20568;-78
2023/11/17 08:48:35;;;;;;;39.40;35.45;;;;;;;;;;5119089;28;20230;-82
2023/11/17 08:51:02;;;;;;;41.03;36.40;;;;;;;;;;5115714;28;20194;-81
2023/11/17 08:53:29;;;;;;;43.00;38.55;;;;;;;;;;5115982;28;20206;-82
2023/11/17 08:55:56;;;;;;;41.85;37.13;;;;;;;;;;5115816;28;20198;-81
2023/11/17 08:58:23;;;;;;;41.67;37.75;;;;;;;;;;5116499;28;20229;-81
2023/11/17 09:00:50;;;;;;;40.72;36.88;;;;;;;;;;5118105;28;20213;-82
2023/11/17 09:03:18;;;;;;;37.90;34.50;;;;;;;;;;5119579;28;20230;-84
2023/11/17 09:05:48;;;;;;;37.95;34.35;;;;;;;;;;5117384;28;20705;-76
2023/11/17 09:08:16;;;;;;;40.17;36.13;;;;;;;;;;5114141;28;20214;-76
2023/11/17 09:10:43;;;;;;;38.80;35.33;;;;;;;;;;5114099;28;20702;-76
2023/11/17 09:13:11;;;;;;;40.15;36.65;;;;;;;;;;5114499;28;20206;-76
2023/11/17 09:15:39;;;;;;;37.47;34.27;;;;;;;;;;5113918;28;20301;-77
2023/11/17 09:18:07;;;;;;;40.58;36.40;;;;;;;;;;5114053;28;20571;-76
2023/11/17 09:20:36;;;;;;;38.92;34.97;;;;;;;;;;5114227;28;20210;-76
2023/11/17 09:23:06;;;;;;;37.58;34.40;;;;;;;;;;5113659;27;20210;-77
2023/11/17 09:25:33;;;;;;;38.67;35.58;;;;;;;;;;5111158;28;20246;-77
2023/11/17 09:28:02;;;;;;;41.17;37.28;;;;;;;;;;5113088;28;20226;-76
2023/11/17 09:30:30;;;;;;;38.00;34.50;;;;;;;;;;5115318;27;20237;-76
2023/11/17 09:32:58;;;;;;;42.13;37.60;;;;;;;;;;5116664;27;20214;-76
2023/11/17 09:35:27;;;;;;;44.20;39.70;;;;;;;;;;5111274;28;20218;-77
2023/11/17 09:37:54;;;;;;;37.65;34.30;;;;;;;;;;5113903;27;20237;-76
2023/11/17 09:40:23;;;;;;;39.13;35.35;;;;;;;;;;5114834;27;20213;-77
2023/11/17 09:42:51;;;;;;;38.77;35.53;;;;;;;;;;5133454;27;20217;-76
2023/11/17 09:45:22;;;;;;;38.75;35.10;;;;;;;;;;5132318;27;20451;-77
2023/11/17 09:47:53;;;;;;;38.83;35.42;;;;;;;;;;5120021;28;20573;-84
2023/11/17 09:50:21;;;;;;;40.90;36.90;;;;;;;;;;5119969;28;20202;-82
2023/11/17 09:52:49;;;;;;;43.45;38.90;;;;;;;;;;5120358;28;20198;-83
2023/11/17 09:55:17;;;;;;;43.05;38.67;;;;;;;;;;5117737;28;20218;-80
2023/11/17 09:57:46;;;;;;;41.47;37.08;;;;;;;;;;5117541;28;20233;-81
2023/11/17 10:00:20;;;;;;;41.17;37.08;;;;;;;;;;5117762;28;20251;-81
2023/11/17 10:02:51;;;;;;;42.00;37.97;;;;;;;;;;5117693;28;20300;-78
2023/11/17 10:05:19;;;;;;;39.25;35.75;;;;;;;;;;5113400;28;20277;-76
2023/11/17 10:07:47;;;;;;;40.53;36.90;;;;;;;;;;5113157;28;20218;-77
2023/11/17 10:10:15;;;;;;;38.50;35.13;;;;;;;;;;5128220;27;20205;-75
2023/11/17 10:12:43;;;;;;;36.00;32.80;;;;;;;;;;5133679;27;20458;-76
2023/11/17 10:15:12;;;;;;;36.07;32.83;;;;;;;;;;5127070;27;20213;-75
2023/11/17 10:17:42;;;;;;;36.47;33.20;;;;;;;;;;5133528;27;20494;-76
2023/11/17 10:20:17;;;;;;;36.33;33.10;;;;;;;;;;5130864;27;20212;-75
2023/11/17 10:22:44;;;;;;;37.90;34.20;;;;;;;;;;5120313;27;20455;-76
2023/11/17 10:25:13;;;;;;;37.13;33.83;;;;;;;;;;5111999;28;20654;-77
2023/11/17 10:27:42;;;;;;;38.83;35.47;;;;;;;;;;5112846;28;20653;-76
2023/11/17 10:30:11;;;;;;;37.90;34.25;;;;;;;;;;5112437;28;20474;-77
2023/11/17 10:32:42;;;;;;;37.50;34.40;;;;;;;;;;5112883;28;20266;-77
2023/11/17 10:35:16;;;;;;;32.97;30.33;;;;;;;;;;5112831;28;20190;-78
2023/11/17 10:37:44;;;;;;;36.22;33.22;;;;;;;;;;5112771;28;20498;-77
2023/11/17 10:40:11;;;;;;;37.35;34.08;;;;;;;;;;5112907;28;20202;-78
2023/11/17 10:42:39;;;;;;;35.40;32.50;;;;;;;;;;5112971;28;20217;-77
2023/11/17 10:45:19;;;;;;;37.08;33.83;;;;;;;;;;5113170;28;20244;-77
2023/11/17 10:47:48;;;;;;;37.45;34.15;;;;;;;;;;5116129;28;20722;-78
2023/11/17 10:50:15;;;;;;;34.97;31.80;;;;;;;;;;5118807;27;20218;-83
2023/11/17 10:52:42;;;;;;;37.17;33.87;;;;;;;;;;5131409;27;20213;-78
2023/11/17 10:55:10;;;;;;;37.25;33.83;;;;;;;;;;5116449;28;20505;-81
2023/11/17 10:57:40;;;;;;;36.75;33.20;;;;;;;;;;5117597;28;20230;-81
2023/11/17 11:00:21;;;;;;;39.13;35.20;;;;;;;;;;5118022;27;20232;-83
2023/11/17 11:02:50;;;;;;;44.37;40.67;;;;;;;;;;5121144;27;21057;-83
2023/11/17 11:05:17;;;;;;;36.00;32.90;;;;;;;;;;5128349;27;20459;-75
2023/11/17 11:07:44;;;;;;;35.38;32.20;;;;;;;;;;5132382;27;20217;-76
2023/11/17 11:10:15;;;;;;;38.57;34.77;;;;;;;;;;5132980;27;20205;-77
2023/11/17 11:12:42;;;;;;;37.53;33.83;;;;;;;;;;5120009;27;20452;-78
2023/11/17 11:15:15;;;;;;;38.27;35.00;;;;;;;;;;5114896;28;20452;-79
2023/11/17 11:17:53;;;;;;;40.50;36.60;;;;;;;;;;5123119;27;20495;-78
2023/11/17 11:20:22;;;;;;;38.75;34.90;;;;;;;;;;5115137;28;20444;-79
2023/11/17 11:22:50;;;;;;;39.90;35.60;;;;;;;;;;5127674;28;20198;-77
2023/11/17 11:25:17;;;;;;;41.40;37.40;;;;;;;;;;5131232;28;20467;-79
2023/11/17 11:27:45;;;;;;;42.40;38.60;;;;;;;;;;5122107;28;20479;-78
2023/11/17 11:30:13;;;;;;;40.55;36.80;;;;;;;;;;5115374;28;20425;-79
2023/11/17 11:32:41;;;;;;;40.00;36.20;;;;;;;;;;5114408;28;20210;-79
2023/11/17 11:35:10;;;;;;;39.92;35.97;;;;;;;;;;5113023;28;20455;-78
2023/11/17 11:37:38;;;;;;;42.97;39.17;;;;;;;;;;5112974;28;20234;-79
2023/11/17 11:40:06;;;;;;;40.57;36.60;;;;;;;;;;5127331;27;20245;-85
2023/11/17 11:42:33;;;;;;;41.13;37.20;;;;;;;;;;5127324;27;20989;-83
2023/11/17 11:45:01;;;;;;;40.00;36.42;;;;;;;;;;5118808;28;20216;-82
2023/11/17 11:47:28;;;;;;;37.97;34.47;;;;;;;;;;5126029;27;20232;-84
2023/11/17 11:49:57;;;;;;;38.47;34.90;;;;;;;;;;5138441;27;20442;-83
2023/11/17 11:52:29;;;;;;;41.70;35.03;;;;;;;;;;5140524;27;20197;-84
2023/11/17 11:54:56;;;;;;;40.17;36.75;;;;;;;;;;5138207;27;20424;-83
2023/11/17 11:57:25;;;;;;;39.60;36.20;;;;;;;;;;5138699;28;20250;-84
2023/11/17 11:59:52;;;;;;;40.15;36.65;;;;;;;;;;5137379;28;20451;-83
2023/11/17 12:02:19;;;;;;;37.30;34.30;;;;;;;;;;5140442;27;20205;-79
2023/11/17 12:04:53;;;;;;;39.23;35.83;;;;;;;;;;5135806;28;20478;-78
2023/11/17 12:07:35;;;;;;;38.20;34.53;;;;;;;;;;5124601;28;20463;-84
2023/11/17 12:10:04;;;;;;;37.00;33.80;;;;;;;;;;5131957;28;20425;-83
2023/11/17 12:12:31;;;;;;;36.53;33.30;;;;;;;;;;5143862;28;20205;-84
2023/11/17 12:15:00;;;;;;;37.10;34.10;;;;;;;;;;5145060;28;20401;-84
2023/11/17 12:17:31;;;;;;;37.55;34.53;;;;;;;;;;5144014;28;20471;-84
2023/11/17 12:20:19;;;;;;;37.08;33.63;;;;;;;;;;5144538;28;20220;-84
2023/11/17 12:23:00;;;;;;;32.60;29.80;;;;;;;;;;5141331;28;20193;-83
2023/11/17 12:25:29;;;;;;;35.40;32.60;;;;;;;;;;5140139;28;20451;-82
2023/11/17 12:27:56;;;;;;;34.73;31.80;;;;;;;;;;5140968;27;20491;-83
2023/11/17 12:30:24;;;;;;;30.47;27.87;;;;;;;;;;5126653;28;20455;-82
2023/11/17 12:32:52;;;;;;;31.90;29.25;;;;;;;;;;5122458;28;20452;-79
2023/11/17 12:35:20;;;;;;;30.33;27.90;;;;;;;;;;5146233;27;20209;-77
2023/11/17 12:37:48;;;;;;;28.23;26.13;;;;;;;;;;5148214;27;20479;-77
2023/11/17 12:40:18;;;;;;;28.97;26.60;;;;;;;;;;5144091;27;20803;-85
2023/11/17 12:42:45;;;;;;;28.80;26.80;;;;;;;;;;5148700;27;20458;-85
2023/11/17 12:45:13;;;;;;;29.10;26.97;;;;;;;;;;5145133;27;20447;-86
2023/11/17 12:47:41;;;;;;;28.80;26.17;;;;;;;;;;5125338;27;20487;-83
2023/11/17 12:50:10;;;;;;;29.70;27.27;;;;;;;;;;5134938;27;20475;-83
2023/11/17 12:52:37;;;;;;;25.07;23.37;;;;;;;;;;5129286;27;20625;-82
2023/11/17 12:55:06;;;;;;;27.47;25.50;;;;;;;;;;5122628;27;20454;-83
2023/11/17 12:57:35;;;;;;;28.30;26.10;;;;;;;;;;5126699;27;20513;-83
2023/11/17 13:00:12;;;;;;;28.80;26.47;;;;;;;;;;5124356;27;20506;-83
2023/11/17 13:02:40;;;;;;;23.95;22.30;;;;;;;;;;5142698;27;20537;-86
2023/11/17 13:05:08;;;;;;;25.60;23.70;;;;;;;;;;5128161;27;20206;-79
2023/11/17 13:07:35;;;;;;;25.93;23.93;;;;;;;;;;5128397;27;20483;-81
2023/11/17 13:10:08;;;;;;;24.50;22.80;;;;;;;;;;5124792;27;20430;-79
2023/11/17 13:12:36;;;;;;;24.60;22.90;;;;;;;;;;5142889;27;20420;-81
2023/11/17 13:15:09;;;;;;;24.33;22.73;;;;;;;;;;5124894;27;20924;-78
2023/11/17 13:17:36;;;;;;;25.20;23.50;;;;;;;;;;5121686;27;20494;-78
2023/11/17 13:20:07;;;;;;;26.40;24.33;;;;;;;;;;5118060;27;20471;-78
2023/11/17 13:22:36;;;;;;;25.27;23.53;;;;;;;;;;5121178;27;20455;-78
2023/11/17 13:25:07;;;;;;;25.80;23.80;;;;;;;;;;5122505;28;20442;-78
2023/11/17 13:27:38;;;;;;;26.90;25.00;;;;;;;;;;5122945;28;20472;-79
2023/11/17 13:30:10;;;;;;;27.80;25.33;;;;;;;;;;5123550;28;20430;-78
2023/11/17 13:32:50;;;;;;;25.77;23.87;;;;;;;;;;5121337;27;20468;-80
2023/11/17 13:35:18;;;;;;;25.77;23.87;;;;;;;;;;5124285;27;20463;-84
2023/11/17 13:37:45;;;;;;;24.53;22.70;;;;;;;;;;5141534;27;20535;-78
2023/11/17 13:40:13;;;;;;;25.73;23.63;;;;;;;;;;5143091;27;20461;-78
2023/11/17 13:42:42;;;;;;;26.67;24.77;;;;;;;;;;5140570;27;20559;-77
2023/11/17 13:45:11;;;;;;;24.93;23.10;;;;;;;;;;5118168;28;20440;-77
2023/11/17 13:47:40;;;;;;;27.30;25.20;;;;;;;;;;5126075;28;20522;-78
2023/11/17 13:50:14;;;;;;;26.17;24.07;;;;;;;;;;5126635;28;20456;-79
2023/11/17 13:52:42;;;;;;;25.10;23.10;;;;;;;;;;5122897;28;20451;-78
2023/11/17 13:55:12;;;;;;;25.13;23.17;;;;;;;;;;5126329;27;20463;-78
2023/11/17 13:57:42;;;;;;;25.37;23.27;;;;;;;;;;5138949;27;20452;-77
2023/11/17 14:00:10;;;;;;;25.67;23.47;;;;;;;;;;5125603;28;20434;-77
2023/11/17 14:02:41;;;;;;;25.03;23.23;;;;;;;;;;5120241;27;20856;-77
2023/11/17 14:05:11;;;;;;;26.37;24.37;;;;;;;;;;5127536;27;20455;-77
2023/11/17 14:07:39;;;;;;;25.37;23.47;;;;;;;;;;5138654;27;20495;-77
2023/11/17 14:10:07;;;;;;;25.10;23.30;;;;;;;;;;5141877;27;20436;-76
2023/11/17 14:12:35;;;;;;;25.63;23.80;;;;;;;;;;5140277;27;20451;-77
2023/11/17 14:15:05;;;;;;;24.17;22.47;;;;;;;;;;5141285;27;20487;-77
2023/11/17 14:17:33;;;;;;;24.65;22.95;;;;;;;;;;5147712;27;20471;-78
2023/11/17 14:20:05;;;;;;;24.87;23.07;;;;;;;;;;5147005;27;20226;-79
2023/11/17 14:22:32;;;;;;;27.53;25.33;;;;;;;;;;5145770;27;20431;-77
2023/11/17 14:25:00;;;;;;;23.93;22.07;;;;;;;;;;5145969;27;20454;-78